Time;durP1;ratioP1;P1;durP2;ratioP2;P2;SDS_P1;SDS_P2;PMS_P1;PMS_P2;Temp;Humidity;BMP_temperature;BMP_pressure;BME280_temperature;BME280_humidity;BME280_pressure;Samples;Min_cycle;Max_cycle;Signal;HPM_P1;HPM_P2
2021/12/24 00:01:13;;;;;;;26.30;14.95;;;;;;;6.76;92.94;98741.41;5059378;28;20463;-91
2021/12/24 00:03:39;;;;;;;25.23;13.77;;;;;;;6.81;92.72;98737.09;5060012;28;20031;-90
2021/12/24 00:06:06;;;;;;;25.58;14.32;;;;;;;6.70;91.81;98734.31;5059885;28;20608;-91
2021/12/24 00:08:32;;;;;;;21.13;11.48;;;;;;;6.72;93.37;98731.34;5059757;28;20029;-92
2021/12/24 00:11:01;;;;;;;21.23;12.57;;;;;;;6.80;92.93;98736.25;5061859;28;20028;-90
2021/12/24 00:13:29;;;;;;;22.77;12.63;;;;;;;6.77;93.45;98726.75;5062479;28;20368;-90
2021/12/24 00:18:36;;;;;;;25.20;11.88;;;;;;;6.74;93.61;98729.19;5063329;28;20278;-91
2021/12/24 00:35:10;;;;;;;21.85;12.20;;;;;;;6.57;95.38;98718.56;5062915;28;20054;-90
2021/12/24 00:37:35;;;;;;;;;;;;;;;6.83;94.49;98708.66;5046454;28;20290;-90
2021/12/24 00:40:18;;;;;;;18.05;11.88;;;;;;;6.82;93.68;98714.31;5046624;28;20350;-90
2021/12/24 00:42:46;;;;;;;15.85;9.38;;;;;;;6.79;92.75;98722.97;5043766;28;20025;-90
2021/12/24 00:45:13;;;;;;;22.27;10.95;;;;;;;6.81;93.81;98710.81;5062559;28;20036;-89
2021/12/24 00:47:39;;;;;;;26.52;11.43;;;;;;;6.86;94.11;98716.22;5043933;28;20109;-89
2021/12/24 00:50:09;;;;;;;17.55;10.50;;;;;;;6.92;93.24;98716.22;5063050;28;20029;-90
2021/12/24 00:52:47;;;;;;;18.70;11.15;;;;;;;7.04;93.12;98719.53;5062984;28;20029;-90
2021/12/24 00:55:18;;;;;;;14.18;9.38;;;;;;;6.97;93.29;98717.09;5046734;28;20056;-90
2021/12/24 00:57:49;;;;;;;18.15;9.75;;;;;;;6.94;93.75;98712.19;5061559;28;20516;-90
2021/12/24 01:00:31;;;;;;;17.27;10.35;;;;;;;6.88;93.71;98716.78;5074274;28;20029;-89
2021/12/24 01:02:59;;;;;;;25.05;11.25;;;;;;;7.10;92.82;98710.34;5044670;28;20020;-91
2021/12/24 01:05:26;;;;;;;19.15;11.07;;;;;;;7.12;93.21;98700.03;5062725;28;20609;-89
2021/12/24 01:07:52;;;;;;;20.83;12.52;;;;;;;6.95;93.84;98716.53;5062807;28;20069;-90
2021/12/24 01:10:21;;;;;;;17.92;10.90;;;;;;;7.00;94.38;98707.59;5061808;28;20441;-90
2021/12/24 01:12:47;;;;;;;14.95;10.00;;;;;;;7.04;92.72;98705.97;5062153;28;20037;-90
2021/12/24 01:15:14;;;;;;;22.08;11.90;;;;;;;6.79;94.64;98707.56;5062564;28;20489;-90
2021/12/24 01:17:52;;;;;;;19.52;9.32;;;;;;;6.87;95.09;98698.91;5062924;28;20029;-90
2021/12/24 01:21:06;;;;;;;16.48;9.73;;;;;;;6.86;94.14;98699.16;5064163;28;20044;-90
2021/12/24 01:29:00;;;;;;;20.27;9.80;;;;;;;6.96;94.55;98692.94;5061697;28;20082;-90
2021/12/24 01:39:22;;;;;;;12.20;7.47;;;;;;;6.92;94.87;98689.13;5061468;28;20339;-92
2021/12/24 01:44:31;;;;;;;16.83;8.38;;;;;;;6.94;94.22;98686.97;5061682;28;20038;-91
2021/12/24 01:47:00;;;;;;;17.38;9.90;;;;;;;6.88;95.30;98678.03;5061439;28;20032;-91
2021/12/24 01:49:26;;;;;;;15.18;9.55;;;;;;;7.04;94.66;98681.59;5060511;28;20036;-91
2021/12/24 01:51:52;;;;;;;15.75;8.98;;;;;;;6.97;94.47;98689.16;5060762;28;20039;-91
2021/12/24 01:54:18;;;;;;;13.13;7.18;;;;;;;7.03;94.67;98688.09;5060456;28;20029;-90
2021/12/24 01:56:44;;;;;;;17.38;9.40;;;;;;;6.95;95.20;98680.50;5064259;28;20028;-92
2021/12/24 01:59:09;;;;;;;14.88;8.82;;;;;;;6.99;94.95;98684.28;5050483;28;20025;-91
2021/12/24 02:01:35;;;;;;;17.25;9.55;;;;;;;6.99;94.68;98670.75;5065023;28;20040;-91
2021/12/24 02:04:00;;;;;;;14.60;8.68;;;;;;;7.09;94.15;98680.78;5066956;28;20024;-89
2021/12/24 02:06:26;;;;;;;14.02;7.45;;;;;;;6.91;94.54;98680.22;5065551;28;20037;-91
2021/12/24 02:08:52;;;;;;;14.30;8.18;;;;;;;6.93;94.76;98680.75;5066501;28;20025;-88
2021/12/24 02:11:17;;;;;;;14.18;8.30;;;;;;;7.03;95.40;98671.84;5068049;28;20032;-90
2021/12/24 02:13:42;;;;;;;15.23;7.10;;;;;;;7.07;94.62;98666.69;5066925;28;20573;-90
2021/12/24 02:16:16;;;;;;;12.63;8.82;;;;;;;7.00;94.96;98661.53;5063155;28;20770;-90
2021/12/24 02:29:56;;;;;;;20.85;11.82;;;;;;;6.93;96.23;98656.38;5061791;28;20047;-89
2021/12/24 02:32:21;;;;;;;19.17;9.10;;;;;;;7.14;95.23;98669.16;5059997;28;20020;-91
2021/12/24 02:34:47;;;;;;;15.88;10.00;;;;;;;7.20;94.97;98657.22;5060863;28;20391;-91
2021/12/24 02:37:14;;;;;;;19.00;10.88;;;;;;;7.14;95.23;98653.69;5063781;28;20036;-91
2021/12/24 02:39:40;;;;;;;18.13;11.00;;;;;;;7.15;94.95;98643.66;5066935;28;20028;-91
2021/12/24 02:42:11;;;;;;;20.63;12.52;;;;;;;7.06;95.52;98646.91;5069088;28;20036;-91
2021/12/24 02:44:36;;;;;;;21.02;12.13;;;;;;;7.16;94.35;98650.72;5046783;28;20692;-91
2021/12/24 02:55:14;;;;;;;21.17;12.27;;;;;;;7.01;96.23;98636.06;5068397;28;21299;-89
2021/12/24 02:57:41;;;;;;;24.95;14.95;;;;;;;7.19;95.36;98623.88;5067545;28;20039;-91
2021/12/24 03:00:15;;;;;;;20.95;11.95;;;;;;;7.25;95.65;98627.41;5068853;28;20025;-91
2021/12/24 03:02:42;;;;;;;;;;;;;;;7.22;94.71;98636.09;5067700;28;20056;-90
2021/12/24 03:05:07;;;;;;;21.92;13.55;;;;;;;7.19;95.45;98628.47;5066906;28;19920;-89
2021/12/24 03:07:33;;;;;;;22.23;13.27;;;;;;;7.23;94.77;98624.97;5068381;28;20028;-89
2021/12/24 03:10:00;;;;;;;24.73;12.88;;;;;;;7.15;95.77;98622.78;5067638;28;20024;-89
2021/12/24 03:12:27;;;;;;;20.40;12.00;;;;;;;7.22;95.52;98622.53;5068372;28;20139;-88
2021/12/24 03:14:52;;;;;;;16.23;10.35;;;;;;;7.35;94.40;98619.28;5051710;28;20024;-89
2021/12/24 03:17:22;;;;;;;16.70;10.45;;;;;;;7.42;93.94;98616.31;5069484;28;20696;-89
2021/12/24 03:19:47;;;;;;;15.65;10.18;;;;;;;7.40;93.66;98623.06;5067921;28;20361;-90
2021/12/24 03:22:36;;;;;;;18.13;9.98;;;;;;;7.33;93.55;98626.88;5050377;28;20035;-91
2021/12/24 03:25:01;;;;;;;16.83;8.30;;;;;;;7.44;93.80;98635.00;5069778;28;20027;-89
2021/12/24 03:27:26;;;;;;;18.83;11.13;;;;;;;7.23;94.60;98622.25;5068573;28;20024;-90
2021/12/24 03:29:52;;;;;;;14.25;8.07;;;;;;;7.28;94.80;98628.78;5069754;28;20104;-90
2021/12/24 03:32:17;;;;;;;16.15;10.48;;;;;;;7.31;94.72;98625.50;5068999;28;20027;-93
2021/12/24 03:34:43;;;;;;;13.82;8.02;;;;;;;7.45;93.45;98614.91;5067366;28;20033;-90
2021/12/24 03:37:09;;;;;;;15.55;8.88;;;;;;;7.35;94.50;98627.41;5066518;28;20028;-90
2021/12/24 03:39:35;;;;;;;13.95;8.18;;;;;;;7.40;94.26;98623.06;5068987;28;20025;-91
2021/12/24 03:42:01;;;;;;;17.85;9.80;;;;;;;7.38;94.84;98611.69;5069845;28;20455;-91
2021/12/24 03:44:33;;;;;;;19.80;9.07;;;;;;;7.39;94.66;98616.00;5070171;28;20025;-90
2021/12/24 03:47:20;;;;;;;13.52;9.48;;;;;;;7.24;95.49;98617.66;5072072;28;20020;-89
2021/12/24 03:54:57;;;;;;;24.10;13.35;;;;;;;7.26;95.84;98629.03;5071904;28;20038;-91
2021/12/24 03:57:29;;;;;;;27.65;13.52;;;;;;;7.49;94.56;98626.84;5073139;28;20577;-91
2021/12/24 03:59:57;;;;;;;21.83;11.93;;;;;;;7.51;94.50;98619.25;5073537;28;20024;-90
2021/12/24 04:02:23;;;;;;;32.15;15.52;;;;;;;7.26;96.66;98631.72;5071497;28;20467;-91
2021/12/24 04:04:48;;;;;;;23.52;12.90;;;;;;;7.30;96.03;98624.69;5074433;28;20096;-90
2021/12/24 04:07:14;;;;;;;22.95;12.77;;;;;;;7.40;95.02;98631.22;5072401;28;20020;-91
2021/12/24 04:09:49;;;;;;;25.90;13.50;;;;;;;7.38;95.05;98633.38;5074093;28;20028;-91
2021/12/24 04:12:15;;;;;;;27.27;14.98;;;;;;;7.24;96.86;98636.63;5055237;28;20012;-91
2021/12/24 04:14:40;;;;;;;29.45;16.35;;;;;;;7.41;96.33;98640.97;5070980;28;20016;-91
2021/12/24 04:17:07;;;;;;;31.20;15.02;;;;;;;7.44;95.24;98633.13;5073358;28;20092;-91
2021/12/24 04:24:52;;;;;;;27.20;15.32;;;;;;;7.48;95.57;98636.88;5070656;28;20039;-91
2021/12/24 04:27:19;;;;;;;25.55;13.52;;;;;;;7.44;94.57;98643.13;5070334;28;20033;-91
2021/12/24 04:29:44;;;;;;;28.48;14.63;;;;;;;7.31;96.94;98642.59;5066023;28;20028;-91
2021/12/24 04:32:15;;;;;;;22.98;13.85;;;;;;;7.45;95.65;98642.88;5067818;28;20023;-90
2021/12/24 04:34:45;;;;;;;24.60;13.82;;;;;;;7.35;95.39;98648.28;5075461;28;20131;-91
2021/12/24 04:38:03;;;;;;;29.40;14.70;;;;;;;7.33;96.49;98651.28;5053244;28;20036;-89
2021/12/24 05:05:08;;;;;;;26.42;13.85;;;;;;;7.44;96.05;98629.59;5015966;28;20628;-89
2021/12/24 05:10:10;;;;;;;31.58;17.95;;;;;;;7.49;95.05;98626.84;5071939;28;20038;-90
2021/12/24 05:12:36;;;;;;;31.00;17.00;;;;;;;7.35;96.50;98649.09;5072096;28;20028;-90
2021/12/24 05:15:04;;;;;;;31.13;17.55;;;;;;;7.40;96.07;98644.78;5071470;28;20017;-88
2021/12/24 05:17:49;;;;;;;37.78;18.92;;;;;;;7.20;97.39;98652.59;5074498;28;20045;-89
2021/12/24 05:22:59;;;;;;;30.92;19.48;;;;;;;7.30;96.95;98664.56;5069229;28;20047;-88
2021/12/24 05:25:38;;;;;;;26.08;15.65;;;;;;;7.42;96.93;98656.16;5052489;28;20024;-89
2021/12/24 05:28:05;;;;;;;32.53;16.02;;;;;;;7.35;97.24;98659.13;5053461;28;21444;-90
2021/12/24 05:30:30;;;;;;;33.58;17.83;;;;;;;7.34;97.17;98650.16;5073302;28;20105;-89
2021/12/24 05:32:55;;;;;;;43.35;22.45;;;;;;;7.30;97.24;98643.66;5069825;28;20681;-90
2021/12/24 05:35:21;;;;;;;36.45;19.83;;;;;;;7.31;97.16;98658.84;5070673;28;21105;-89
2021/12/24 05:37:46;;;;;;;30.08;18.15;;;;;;;7.31;97.00;98648.00;5068092;28;20028;-88
2021/12/24 05:40:12;;;;;;;28.92;15.38;;;;;;;7.52;95.72;98652.63;5073792;28;20081;-90
2021/12/24 05:42:37;;;;;;;34.25;17.38;;;;;;;7.39;96.48;98656.69;5070297;28;20012;-89
2021/12/24 05:45:06;;;;;;;30.90;16.85;;;;;;;7.47;95.58;98656.16;5069847;28;20488;-89
2021/12/24 05:47:32;;;;;;;33.92;16.52;;;;;;;7.61;95.77;98661.03;5070045;28;20725;-89
2021/12/24 05:49:58;;;;;;;30.27;16.77;;;;;;;7.71;94.91;98658.31;5070156;28;20038;-88
2021/12/24 05:52:24;;;;;;;28.88;15.73;;;;;;;7.66;93.89;98644.75;5073315;28;20012;-89
2021/12/24 05:54:49;;;;;;;30.98;17.83;;;;;;;7.47;95.02;98645.28;5080806;28;20581;-89
2021/12/24 05:57:15;;;;;;;30.92;17.70;;;;;;;7.41;96.20;98651.81;5069027;28;20078;-90
2021/12/24 05:59:40;;;;;;;40.78;15.95;;;;;;;7.56;94.97;98649.13;5073624;28;21402;-90
2021/12/24 06:02:06;;;;;;;35.00;17.08;;;;;;;7.71;93.83;98650.97;5071265;28;20028;-91
2021/12/24 06:04:32;;;;;;;26.48;14.40;;;;;;;7.57;94.52;98652.63;5068492;28;20555;-90
2021/12/24 06:06:58;;;;;;;26.70;14.90;;;;;;;7.59;94.68;98651.25;5049334;28;20115;-89
2021/12/24 06:09:24;;;;;;;28.08;15.88;;;;;;;7.75;93.88;98658.59;5069836;28;20048;-90
2021/12/24 06:14:55;;;;;;;26.35;14.75;;;;;;;7.64;94.02;98658.59;5059240;28;20085;-91
2021/12/24 06:17:22;;;;;;;25.10;13.48;;;;;;;7.79;93.04;98660.47;5069399;28;20114;-91
2021/12/24 06:19:49;;;;;;;30.75;17.08;;;;;;;7.59;93.17;98674.84;5068803;28;20103;-90
2021/12/24 06:22:14;;;;;;;36.50;17.95;;;;;;;7.48;94.12;98680.28;5068260;28;20063;-90
2021/12/24 06:24:40;;;;;;;33.70;16.02;;;;;;;7.39;95.47;98671.06;5049788;28;20060;-89
2021/12/24 06:27:05;;;;;;;30.45;16.33;;;;;;;7.44;95.50;98664.84;5071932;28;20028;-88
2021/12/24 06:29:31;;;;;;;33.13;17.60;;;;;;;7.58;94.90;98668.63;5047222;28;20111;-91
2021/12/24 06:31:57;;;;;;;38.03;19.55;;;;;;;7.67;94.16;98671.59;5066610;28;20028;-91
2021/12/24 06:34:22;;;;;;;32.20;15.85;;;;;;;7.58;94.26;98676.78;5050840;28;20111;-91
2021/12/24 06:37:00;;;;;;;27.30;17.92;;;;;;;7.67;94.27;98681.63;5067712;28;20664;-89
2021/12/24 06:39:26;;;;;;;26.75;14.30;;;;;;;7.61;94.60;98678.13;5068290;28;20028;-91
2021/12/24 06:41:53;;;;;;;32.35;16.80;;;;;;;7.65;93.98;98678.38;5068467;28;20020;-91
2021/12/24 06:44:20;;;;;;;47.10;18.30;;;;;;;7.70;92.98;98672.97;5068283;28;20044;-90
2021/12/24 06:46:46;;;;;;;27.20;15.65;;;;;;;7.66;94.15;98688.97;5069125;28;20132;-90
2021/12/24 06:49:11;;;;;;;36.97;19.77;;;;;;;7.55;94.02;98690.88;5069537;28;20744;-90
2021/12/24 06:51:37;;;;;;;27.13;17.15;;;;;;;7.70;93.78;98686.53;5067228;28;20024;-90
2021/12/24 06:54:04;;;;;;;29.35;14.73;;;;;;;7.69;93.68;98691.13;5066954;28;20024;-90
2021/12/24 06:56:29;;;;;;;27.73;14.77;;;;;;;7.74;93.11;98687.63;5067873;28;20464;-90
2021/12/24 06:58:55;;;;;;;36.35;16.83;;;;;;;7.63;94.33;98680.56;5066774;28;20032;-90
2021/12/24 07:01:20;;;;;;;28.33;14.20;;;;;;;7.66;93.11;98677.31;5066225;28;20021;-91
2021/12/24 07:03:46;;;;;;;27.50;14.55;;;;;;;7.68;93.35;98672.41;5064282;28;20027;-91
2021/12/24 07:06:11;;;;;;;33.13;14.18;;;;;;;7.74;93.01;98681.38;5065539;28;20056;-89
2021/12/24 07:08:49;;;;;;;35.58;16.90;;;;;;;7.56;93.55;98676.22;5066083;28;20051;-91
2021/12/24 07:11:14;;;;;;;35.50;18.05;;;;;;;7.39;95.62;98686.50;5064825;28;20024;-91
2021/12/24 07:13:40;;;;;;;31.52;16.08;;;;;;;7.56;94.25;98676.22;5063369;28;20032;-91
2021/12/24 07:16:08;;;;;;;29.23;14.35;;;;;;;7.67;94.01;98677.03;5064824;28;20103;-90
2021/12/24 07:18:34;;;;;;;29.45;16.05;;;;;;;7.76;93.30;98666.44;5063919;28;20032;-91
2021/12/24 07:20:59;;;;;;;29.48;16.23;;;;;;;7.56;93.72;98665.38;5064518;28;20600;-90
2021/12/24 07:23:24;;;;;;;27.88;13.27;;;;;;;7.71;93.13;98669.16;5064201;28;20043;-91
2021/12/24 07:25:49;;;;;;;28.42;14.32;;;;;;;7.70;93.31;98673.78;5064517;28;20119;-90
2021/12/24 07:28:15;;;;;;;25.77;11.82;;;;;;;7.60;93.72;98681.94;5046255;28;20067;-90
2021/12/24 07:30:40;;;;;;;34.25;15.95;;;;;;;7.44;94.46;98687.34;5066833;28;20471;-90
2021/12/24 07:33:06;;;;;;;28.38;14.48;;;;;;;7.53;94.36;98693.03;5069352;28;20047;-90
2021/12/24 07:35:31;;;;;;;27.52;13.45;;;;;;;7.83;92.87;98696.03;5049799;28;20444;-92
2021/12/24 07:37:59;;;;;;;40.83;15.52;;;;;;;7.61;93.44;98693.59;5068503;28;20566;-91
2021/12/24 07:40:26;;;;;;;26.25;13.70;;;;;;;7.87;92.46;98701.72;5066465;28;20025;-91
2021/12/24 07:42:51;;;;;;;30.92;14.43;;;;;;;7.71;92.92;98705.25;5049295;28;20383;-91
2021/12/24 07:45:17;;;;;;;30.55;15.30;;;;;;;7.68;93.06;98699.56;5066706;28;20125;-91
2021/12/24 07:47:44;;;;;;;39.42;15.27;;;;;;;7.71;92.79;98696.28;5068555;28;20032;-91
2021/12/24 07:51:57;;;;;;;28.65;15.32;;;;;;;7.46;94.33;98720.41;5066109;28;20055;-90
2021/12/24 07:53:13;;;;;;;33.85;15.27;;;;;;;7.80;92.92;98713.66;5067519;28;20689;-90
2021/12/24 07:55:40;;;;;;;28.92;14.85;;;;;;;7.71;92.55;98709.84;5066228;28;20049;-91
2021/12/24 07:58:10;;;;;;;29.15;14.90;;;;;;;7.67;93.27;98703.34;5063181;28;20036;-91
2021/12/24 08:00:37;;;;;;;25.98;13.63;;;;;;;7.67;93.11;98704.16;5066757;28;20024;-90
2021/12/24 08:03:03;;;;;;;28.75;16.17;;;;;;;7.81;92.38;98701.72;5067829;28;20021;-91
2021/12/24 08:05:30;;;;;;;29.45;14.15;;;;;;;7.56;93.00;98711.50;5067628;28;20105;-90
2021/12/24 08:07:55;;;;;;;30.13;15.18;;;;;;;7.71;93.37;98707.97;5066005;28;20016;-91
2021/12/24 08:10:24;;;;;;;31.00;15.80;;;;;;;7.63;92.93;98703.06;5051577;28;20197;-91
2021/12/24 08:12:50;;;;;;;31.88;15.88;;;;;;;7.75;92.46;98700.09;5051344;28;20127;-91
2021/12/24 08:15:18;;;;;;;31.83;12.90;;;;;;;7.65;93.15;98698.19;5067737;28;20170;-91
2021/12/24 08:20:50;;;;;;;28.67;13.70;;;;;;;7.76;92.38;98699.00;5060632;28;20448;-91
2021/12/24 08:23:21;;;;;;;31.60;11.30;;;;;;;7.69;92.89;98693.03;5050267;28;20084;-92
2021/12/24 08:25:47;;;;;;;30.17;13.20;;;;;;;7.74;92.37;98690.34;5061522;28;20028;-91
2021/12/24 08:28:12;;;;;;;31.27;12.40;;;;;;;7.74;92.46;98695.75;5059962;28;20376;-92
2021/12/24 08:30:37;;;;;;;34.22;13.80;;;;;;;7.46;93.13;98697.94;5042677;28;20017;-92
2021/12/24 08:33:10;;;;;;;28.52;13.80;;;;;;;7.77;92.79;98691.69;5060466;28;20041;-91
2021/12/24 08:35:35;;;;;;;26.70;12.40;;;;;;;7.78;92.02;98680.56;5067181;28;20128;-92
2021/12/24 08:38:01;;;;;;;26.40;12.38;;;;;;;7.68;91.82;98675.97;5050621;28;20190;-90
2021/12/24 08:40:26;;;;;;;24.73;12.88;;;;;;;7.71;92.15;98683.53;5069018;28;20021;-91
2021/12/24 08:42:51;;;;;;;30.60;13.57;;;;;;;7.66;92.28;98678.13;5070130;28;20052;-89
2021/12/24 08:45:17;;;;;;;28.55;14.30;;;;;;;7.47;93.21;98683.25;5052186;28;20042;-90
2021/12/24 08:47:43;;;;;;;30.63;15.98;;;;;;;7.71;92.12;98661.00;5067735;28;20266;-91
2021/12/24 08:50:12;;;;;;;24.33;13.18;;;;;;;7.74;92.09;98665.91;5070303;28;20347;-90
2021/12/24 08:52:37;;;;;;;20.67;11.50;;;;;;;7.76;92.25;98673.78;5067921;28;20028;-89
2021/12/24 08:55:03;;;;;;;20.88;11.90;;;;;;;7.83;91.43;98664.25;5070574;28;20065;-90
2021/12/24 09:00:38;;;;;;;21.10;10.80;;;;;;;7.76;91.43;98674.59;5063993;28;20043;-89
2021/12/24 09:03:09;;;;;;;25.67;11.77;;;;;;;7.90;91.36;98674.84;5065411;28;20416;-89
2021/12/24 09:05:34;;;;;;;33.03;13.68;;;;;;;7.82;91.26;98678.94;5062815;28;20032;-88
2021/12/24 09:08:01;;;;;;;21.63;11.07;;;;;;;7.89;90.97;98672.41;5048918;28;20024;-87
2021/12/24 09:10:27;;;;;;;23.92;12.27;;;;;;;7.86;91.43;98675.66;5063282;28;20036;-89
2021/12/24 09:12:52;;;;;;;25.17;12.55;;;;;;;7.89;91.08;98665.06;5062326;28;20491;-90
2021/12/24 09:15:19;;;;;;;29.08;12.43;;;;;;;7.96;91.13;98664.78;5062956;28;20107;-88
2021/12/24 09:17:47;;;;;;;27.73;12.32;;;;;;;8.12;90.40;98662.84;5064637;28;20133;-89
2021/12/24 09:20:21;;;;;;;30.20;14.40;;;;;;;7.97;90.50;98666.44;5064768;28;20808;-88
2021/12/24 09:22:48;;;;;;;27.20;14.70;;;;;;;7.90;90.59;98663.16;5046964;28;20387;-88
2021/12/24 09:25:14;;;;;;;35.47;15.55;;;;;;;7.93;90.88;98651.78;5063554;28;20119;-89
2021/12/24 09:27:40;;;;;;;31.40;17.55;;;;;;;7.67;91.97;98659.94;5064094;28;20036;-89
2021/12/24 09:30:06;;;;;;;38.47;14.45;;;;;;;7.88;91.67;98659.91;5062551;28;20033;-90
2021/12/24 09:32:32;;;;;;;26.65;13.70;;;;;;;7.81;92.17;98652.88;5065687;28;20426;-89
2021/12/24 09:34:57;;;;;;;29.42;17.08;;;;;;;7.75;91.85;98651.25;5054043;28;20017;-88
2021/12/24 09:37:23;;;;;;;33.20;13.02;;;;;;;7.92;91.83;98650.13;5064024;28;20025;-85
2021/12/24 09:39:48;;;;;;;30.88;14.48;;;;;;;7.76;91.98;98658.31;5061276;28;20025;-91
2021/12/24 09:42:13;;;;;;;29.45;14.88;;;;;;;7.86;91.94;98651.22;5059712;28;20262;-88
2021/12/24 09:44:39;;;;;;;23.73;11.15;;;;;;;7.85;91.63;98655.84;5060621;28;20299;-88
2021/12/24 09:47:05;;;;;;;31.20;14.48;;;;;;;7.97;91.42;98655.56;5061793;28;20106;-88
2021/12/24 09:49:31;;;;;;;24.20;11.93;;;;;;;7.92;91.04;98661.00;5060915;28;20057;-88
2021/12/24 09:51:58;;;;;;;27.20;13.90;;;;;;;7.91;90.90;98656.66;5043838;28;20013;-88
2021/12/24 09:54:24;;;;;;;29.00;12.70;;;;;;;7.98;91.10;98649.03;5059765;28;20024;-88
2021/12/24 09:56:53;;;;;;;28.27;11.93;;;;;;;7.86;91.02;98652.06;5060294;28;20016;-88
2021/12/24 09:59:19;;;;;;;26.17;12.90;;;;;;;7.88;90.40;98649.88;5060988;28;20080;-88
2021/12/24 10:02:19;;;;;;;26.20;10.75;;;;;;;7.81;91.16;98650.16;5061337;28;20032;-88
2021/12/24 10:04:46;;;;;;;32.97;15.57;;;;;;;7.72;91.07;98643.66;5061473;28;20044;-89
2021/12/24 10:07:16;;;;;;;20.98;9.18;;;;;;;7.89;91.17;98650.69;5041314;28;20040;-93
2021/12/24 10:09:45;;;;;;;24.52;12.40;;;;;;;8.08;90.30;98648.19;5042897;28;20020;-91
2021/12/24 10:12:13;;;;;;;20.55;10.18;;;;;;;8.06;90.62;98648.47;5059674;28;20036;-86
2021/12/24 10:17:36;;;;;;;33.08;13.75;;;;;;;7.76;91.17;98652.88;5062127;28;20667;-89
2021/12/24 10:20:11;;;;;;;23.10;12.27;;;;;;;7.96;90.45;98662.06;5058900;28;20033;-88
2021/12/24 10:22:51;;;;;;;36.30;13.80;;;;;;;7.94;90.32;98658.81;5058823;28;20059;-88
2021/12/24 10:28:10;;;;;;;24.27;13.15;;;;;;;7.88;90.74;98649.88;5062901;28;20097;-93
2021/12/24 10:30:35;;;;;;;27.23;12.45;;;;;;;8.02;90.09;98649.28;5065636;28;20044;-88
2021/12/24 10:33:09;;;;;;;29.35;13.32;;;;;;;8.03;90.29;98653.66;5042785;28;20570;-88
2021/12/24 10:35:34;;;;;;;30.33;13.00;;;;;;;8.16;89.09;98665.81;5060005;28;20111;-86
2021/12/24 10:38:09;;;;;;;25.95;13.93;;;;;;;7.98;90.23;98654.47;5042935;28;20468;-87
2021/12/24 10:40:34;;;;;;;34.50;11.02;;;;;;;7.95;90.04;98649.59;5060053;28;20530;-93
2021/12/24 10:43:00;;;;;;;30.75;10.93;;;;;;;8.11;89.93;98657.69;5058854;28;20044;-88
2021/12/24 10:45:26;;;;;;;22.38;10.85;;;;;;;8.02;90.05;98649.28;5059843;28;20081;-87
2021/12/24 10:47:51;;;;;;;26.80;11.43;;;;;;;7.94;89.96;98658.81;5062045;28;20039;-85
2021/12/24 10:55:23;;;;;;;30.90;13.73;;;;;;;7.69;90.90;98664.00;5059782;28;20023;-84
2021/12/24 10:57:54;;;;;;;30.80;13.95;;;;;;;7.88;91.28;98654.47;5058652;28;20549;-84
2021/12/24 11:00:25;;;;;;;33.22;13.48;;;;;;;7.92;90.61;98652.84;5058806;28;20057;-83
2021/12/24 11:03:00;;;;;;;28.67;12.30;;;;;;;8.06;90.50;98655.81;5040462;28;20693;-85
2021/12/24 11:05:28;;;;;;;27.60;12.50;;;;;;;7.90;91.17;98649.59;5060125;28;20032;-83
2021/12/24 11:07:54;;;;;;;28.88;13.88;;;;;;;7.91;90.54;98657.47;5040612;28;20055;-84
2021/12/24 11:10:22;;;;;;;33.38;15.40;;;;;;;7.85;90.10;98660.47;5059207;28;20028;-83
2021/12/24 11:12:54;;;;;;;26.63;10.90;;;;;;;7.79;91.56;98652.31;5058923;28;20020;-84
2021/12/24 11:15:33;;;;;;;29.80;13.32;;;;;;;7.86;90.39;98656.66;5040787;28;20028;-83
2021/12/24 11:18:03;;;;;;;34.03;13.57;;;;;;;7.57;91.97;98658.84;5041817;28;20159;-83
2021/12/24 11:20:30;;;;;;;27.20;11.15;;;;;;;7.83;90.90;98658.84;5058505;28;20033;-82
2021/12/24 11:23:23;;;;;;;29.02;11.73;;;;;;;8.08;90.55;98653.63;5063213;28;20032;-82
2021/12/24 11:25:55;;;;;;;20.23;11.75;;;;;;;8.02;90.77;98652.84;5058430;28;20047;-82
2021/12/24 11:28:23;;;;;;;29.85;11.75;;;;;;;7.98;90.50;98650.94;5061429;28;20408;-83
2021/12/24 11:30:52;;;;;;;27.23;11.13;;;;;;;7.95;91.08;98649.59;5060849;28;20111;-82
2021/12/24 11:33:24;;;;;;;26.88;14.00;;;;;;;7.92;91.04;98650.13;5041590;28;20051;-82
2021/12/24 11:35:50;;;;;;;22.40;9.23;;;;;;;7.73;91.08;98653.41;5066640;28;20017;-82
2021/12/24 11:38:18;;;;;;;29.73;10.90;;;;;;;7.70;91.11;98651.25;5063515;28;20039;-83
2021/12/24 11:40:49;;;;;;;18.10;8.98;;;;;;;7.88;90.96;98655.31;5062668;28;20025;-82
2021/12/24 11:43:17;;;;;;;17.63;8.35;;;;;;;7.83;90.84;98653.41;5061386;28;20043;-82
2021/12/24 11:45:43;;;;;;;16.95;8.10;;;;;;;7.95;90.54;98649.59;5058724;28;20483;-82
2021/12/24 11:48:09;;;;;;;17.70;8.50;;;;;;;7.69;91.65;98652.34;5058440;28;20017;-83
2021/12/24 11:50:35;;;;;;;33.47;11.52;;;;;;;7.92;90.82;98655.56;5057548;28;20067;-81
2021/12/24 11:53:06;;;;;;;21.13;9.40;;;;;;;7.70;91.39;98649.38;5041385;28;20471;-81
2021/12/24 11:55:35;;;;;;;14.57;6.30;;;;;;;7.87;91.39;98652.88;5057642;28;20024;-85
2021/12/24 11:58:07;;;;;;;19.60;7.95;;;;;;;7.87;90.65;98647.44;5059600;28;20396;-85
2021/12/24 12:00:44;;;;;;;25.02;8.85;;;;;;;7.98;90.57;98643.63;5063605;28;20107;-83
2021/12/24 12:03:28;;;;;;;22.42;8.38;;;;;;;8.08;90.76;98647.38;5071036;28;20044;-84
2021/12/24 12:05:54;;;;;;;17.45;8.27;;;;;;;7.99;90.83;98642.53;5074021;28;20024;-82
2021/12/24 12:08:25;;;;;;;15.35;8.75;;;;;;;8.08;90.22;98636.53;5079813;28;20948;-83
2021/12/24 12:11:02;;;;;;;32.85;9.43;;;;;;;8.02;90.60;98639.25;5081167;28;20106;-84
2021/12/24 12:13:37;;;;;;;19.67;8.40;;;;;;;8.10;90.15;98637.06;5061429;28;20119;-84
2021/12/24 12:16:04;;;;;;;19.70;8.10;;;;;;;8.01;90.87;98623.25;5078732;28;20084;-84
2021/12/24 12:18:33;;;;;;;21.77;8.00;;;;;;;7.97;91.37;98631.16;5076559;28;20024;-84
2021/12/24 12:21:20;;;;;;;21.63;11.70;;;;;;;7.84;91.77;98624.38;5072466;28;20020;-83
2021/12/24 12:26:52;;;;;;;25.55;7.80;;;;;;;7.95;91.76;98622.47;5027020;28;19919;-84
2021/12/24 12:29:44;;;;;;;21.50;8.73;;;;;;;7.99;91.69;98622.72;5074443;28;20040;-83
2021/12/24 12:32:12;;;;;;;23.00;10.27;;;;;;;7.98;91.81;98632.75;5074144;28;20071;-82
2021/12/24 12:34:43;;;;;;;25.42;9.77;;;;;;;8.02;91.59;98622.97;5056611;28;20505;-83
2021/12/24 12:37:17;;;;;;;19.52;8.93;;;;;;;7.83;92.54;98620.84;5056818;28;20041;-83
2021/12/24 12:39:44;;;;;;;24.40;10.63;;;;;;;7.81;92.49;98612.16;5073705;28;20027;-84
2021/12/24 12:42:10;;;;;;;18.98;9.05;;;;;;;7.85;93.08;98622.47;5054928;28;20029;-82
2021/12/24 12:44:39;;;;;;;24.35;13.27;;;;;;;7.91;92.03;98615.97;5075414;28;20533;-84
2021/12/24 12:47:17;;;;;;;22.65;11.05;;;;;;;8.04;91.98;98609.94;5073692;28;20075;-83
2021/12/24 12:49:43;;;;;;;20.17;9.35;;;;;;;8.01;91.84;98621.38;5058249;28;20079;-83
2021/12/24 12:52:20;;;;;;;17.10;8.48;;;;;;;7.94;91.62;98620.81;5075956;28;20458;-83
2021/12/24 12:54:47;;;;;;;33.80;11.50;;;;;;;7.96;92.18;98610.50;5074263;28;20112;-85
2021/12/24 12:57:36;;;;;;;18.70;10.48;;;;;;;8.13;91.20;98610.19;5075899;28;20455;-88
2021/12/24 13:00:07;;;;;;;21.95;10.82;;;;;;;8.06;90.80;98607.75;5074224;28;20039;-85
2021/12/24 13:03:06;;;;;;;28.83;11.43;;;;;;;8.14;91.26;98608.28;5057305;28;20021;-83
2021/12/24 13:05:40;;;;;;;25.83;11.88;;;;;;;8.09;91.18;98608.31;5077788;28;20060;-85
2021/12/24 13:08:11;;;;;;;20.02;10.45;;;;;;;7.87;91.52;98609.44;5072850;28;20285;-83
2021/12/24 13:10:37;;;;;;;19.15;10.30;;;;;;;7.89;91.70;98615.41;5073907;28;20025;-84
2021/12/24 13:13:05;;;;;;;22.38;11.00;;;;;;;7.90;91.78;98614.31;5072978;28;20153;-84
2021/12/24 13:15:31;;;;;;;20.63;10.55;;;;;;;7.83;91.64;98611.91;5057487;28;20028;-83
2021/12/24 13:18:02;;;;;;;22.73;11.48;;;;;;;8.05;91.18;98616.19;5073174;28;20063;-85
2021/12/24 13:20:46;;;;;;;29.73;11.25;;;;;;;7.94;92.04;98615.41;5073843;28;20028;-84
2021/12/24 13:23:21;;;;;;;34.88;11.80;;;;;;;7.92;91.50;98607.53;5072978;28;20059;-84
2021/12/24 13:25:46;;;;;;;30.02;12.38;;;;;;;7.85;91.87;98611.63;5069710;28;20521;-82
2021/12/24 13:28:11;;;;;;;26.83;12.20;;;;;;;8.08;90.68;98609.38;5073126;28;20032;-84
2021/12/24 13:30:37;;;;;;;20.55;9.65;;;;;;;8.04;90.83;98607.22;5076650;28;20528;-84